Wetterdaten: Woche 18.04.16 - 24.04.16 (KW16)
Datum Zeit Temp. I. Temp. A. Feuchte I. Feuchte A. Luftdruck Regen Wind Richtung Sonnenschein UV Solar Taupunkt Windchill Windben
18.04.2016 00:00 22,9 C 5,1 C 50 % 94 % 1016,4 hPa 0,0 l/m 0,0 km/h (0 Bft) N 0,00 h 0,0 UV-I 0 W/m 4,2 C 5,1 C 0,0 km/h (0 Bft)
18.04.2016 01:00 22,8 C 5,0 C 50 % 95 % 1016,9 hPa 0,0 l/m 0,0 km/h (0 Bft) N 0,00 h 0,0 UV-I 0 W/m 4,2 C 5,0 C 0,0 km/h (0 Bft)
18.04.2016 02:00 22,8 C 4,9 C 51 % 95 % 1017,0 hPa 0,0 l/m 0,0 km/h (0 Bft) N 0,00 h 0,0 UV-I 0 W/m 4,2 C 4,9 C 0,0 km/h (0 Bft)
18.04.2016 03:00 22,7 C 4,8 C 51 % 95 % 1017,5 hPa 0,0 l/m 0,0 km/h (0 Bft) N 0,00 h 0,0 UV-I 0 W/m 4,0 C 4,8 C 0,0 km/h (0 Bft)
18.04.2016 04:00 22,8 C 4,7 C 51 % 95 % 1017,8 hPa 0,0 l/m 0,0 km/h (0 Bft) N 0,00 h 0,0 UV-I 0 W/m 4,0 C 4,7 C 0,0 km/h (0 Bft)
18.04.2016 05:00 22,7 C 4,7 C 50 % 95 % 1017,7 hPa 0,2 l/m 0,0 km/h (0 Bft) N 0,00 h 0,0 UV-I 0 W/m 4,0 C 4,7 C 0,0 km/h (0 Bft)
18.04.2016 06:00 22,6 C 4,5 C 50 % 96 % 1017,9 hPa 0,0 l/m 0,0 km/h (0 Bft) N 0,00 h 0,0 UV-I 12 W/m 3,8 C 4,5 C 0,0 km/h (0 Bft)
18.04.2016 07:00 22,6 C 4,7 C 50 % 96 % 1018,7 hPa 0,0 l/m 0,2 km/h (0 Bft) N-NW 0,00 h 0,0 UV-I 46 W/m 4,1 C 4,7 C 0,8 km/h (0 Bft)
18.04.2016 08:00 22,6 C 5,4 C 50 % 95 % 1019,3 hPa 0,0 l/m 0,5 km/h (0 Bft) N 0,22 h 0,6 UV-I 116 W/m 4,6 C 5,4 C 1,3 km/h (1 Bft)
18.04.2016 09:00 22,6 C 6,7 C 50 % 89 % 1019,6 hPa 0,0 l/m 0,4 km/h (0 Bft) N 1,00 h 1,1 UV-I 251 W/m 5,1 C 6,7 C 1,2 km/h (1 Bft)
18.04.2016 10:00 22,8 C 7,9 C 51 % 82 % 1019,7 hPa 0,0 l/m 0,3 km/h (0 Bft) S-SW 1,00 h 1,9 UV-I 366 W/m 5,0 C 7,9 C 0,9 km/h (0 Bft)
18.04.2016 11:00 23,1 C 9,4 C 51 % 71 % 1019,5 hPa 0,0 l/m 1,1 km/h (1 Bft) N-NW 1,00 h 2,6 UV-I 452 W/m 4,4 C 9,4 C 2,6 km/h (1 Bft)
18.04.2016 12:00 23,1 C 10,7 C 51 % 61 % 1019,4 hPa 0,0 l/m 1,4 km/h (1 Bft) N-NO 1,00 h 3,1 UV-I 559 W/m 3,4 C 10,7 C 3,3 km/h (1 Bft)
18.04.2016 13:00 23,1 C 10,2 C 50 % 57 % 1019,5 hPa 0,0 l/m 0,7 km/h (0 Bft) W-SW 1,00 h 2,2 UV-I 319 W/m 2,1 C 10,2 C 2,0 km/h (1 Bft)
18.04.2016 14:00 23,2 C 10,9 C 48 % 55 % 1019,6 hPa 0,0 l/m 1,4 km/h (1 Bft) NW 1,00 h 2,0 UV-I 309 W/m 2,2 C 10,9 C 3,2 km/h (1 Bft)
18.04.2016 15:00 23,3 C 11,3 C 47 % 55 % 1019,3 hPa 0,0 l/m 1,4 km/h (1 Bft) W 1,00 h 1,9 UV-I 331 W/m 2,7 C 11,3 C 3,9 km/h (1 Bft)
18.04.2016 16:00 22,6 C 11,9 C 41 % 53 % 1019,0 hPa 0,0 l/m 1,6 km/h (1 Bft) W-NW 0,72 h 1,5 UV-I 319 W/m 2,6 C 11,9 C 3,6 km/h (1 Bft)
18.04.2016 17:00 23,0 C 11,4 C 43 % 53 % 1018,9 hPa 0,0 l/m 1,2 km/h (1 Bft) NW 0,58 h 0,9 UV-I 208 W/m 2,2 C 11,4 C 3,3 km/h (1 Bft)
18.04.2016 18:00 23,2 C 11,0 C 43 % 54 % 1019,0 hPa 0,0 l/m 1,9 km/h (1 Bft) N 0,00 h 0,5 UV-I 80 W/m 2,0 C 10,9 C 3,4 km/h (1 Bft)
18.04.2016 19:00 23,5 C 10,2 C 43 % 61 % 1019,3 hPa 0,0 l/m 0,0 km/h (0 Bft) N 0,00 h 0,0 UV-I 18 W/m 2,9 C 10,2 C 0,0 km/h (0 Bft)
18.04.2016 20:00 23,4 C 8,7 C 44 % 71 % 1020,0 hPa 0,0 l/m 0,0 km/h (0 Bft) N 0,00 h 0,0 UV-I 5 W/m 3,7 C 8,7 C 0,1 km/h (0 Bft)
18.04.2016 21:00 23,4 C 6,6 C 45 % 80 % 1020,8 hPa 0,0 l/m 0,0 km/h (0 Bft) N 0,00 h 0,0 UV-I 0 W/m 3,4 C 6,6 C 0,0 km/h (0 Bft)
18.04.2016 22:00 23,3 C 5,9 C 45 % 83 % 1021,4 hPa 0,0 l/m 0,0 km/h (0 Bft) N 0,00 h 0,0 UV-I 0 W/m 3,1 C 5,9 C 0,0 km/h (0 Bft)
18.04.2016 23:00 23,0 C 5,3 C 46 % 85 % 1021,9 hPa 0,0 l/m 0,0 km/h (0 Bft) N 0,00 h 0,0 UV-I 0 W/m 3,0 C 5,3 C 0,0 km/h (0 Bft)
19.04.2016 00:00 22,8 C 4,7 C 46 % 87 % 1022,3 hPa 0,0 l/m 0,0 km/h (0 Bft) N 0,00 h 0,0 UV-I 0 W/m 2,7 C 4,7 C 0,0 km/h (0 Bft)
19.04.2016 01:00 22,7 C 3,9 C 46 % 89 % 1022,7 hPa 0,0 l/m 0,0 km/h (0 Bft) N 0,00 h 0,0 UV-I 0 W/m 2,2 C 3,9 C 0,0 km/h (0 Bft)
19.04.2016 02:00 22,6 C 3,3 C 47 % 89 % 1022,7 hPa 0,0 l/m 0,0 km/h (0 Bft) N 0,00 h 0,0 UV-I 0 W/m 1,7 C 3,3 C 0,2 km/h (0 Bft)
19.04.2016 03:00 22,6 C 2,6 C 47 % 90 % 1022,8 hPa 0,0 l/m 0,0 km/h (0 Bft) N 0,00 h 0,0 UV-I 0 W/m 1,1 C 2,6 C 0,0 km/h (0 Bft)
19.04.2016 04:00 22,6 C 1,6 C 47 % 90 % 1023,0 hPa 0,0 l/m 0,0 km/h (0 Bft) N 0,00 h 0,0 UV-I 0 W/m 0,1 C 1,6 C 0,0 km/h (0 Bft)
19.04.2016 05:00 22,4 C 0,7 C 46 % 91 % 1023,3 hPa 0,0 l/m 0,0 km/h (0 Bft) N 0,00 h 0,0 UV-I 0 W/m -0,6 C 0,7 C 0,0 km/h (0 Bft)
19.04.2016 06:00 22,4 C 0,1 C 47 % 92 % 1023,6 hPa 0,0 l/m 0,0 km/h (0 Bft) N 0,00 h 0,0 UV-I 14 W/m -1,1 C 0,1 C 0,0 km/h (0 Bft)
19.04.2016 07:00 22,4 C 0,8 C 47 % 94 % 1024,0 hPa 0,0 l/m 0,0 km/h (0 Bft) N 0,23 h 0,5 UV-I 113 W/m 0,0 C 0,8 C 0,0 km/h (0 Bft)
19.04.2016 08:00 22,4 C 4,6 C 47 % 87 % 1024,3 hPa 0,0 l/m 0,1 km/h (0 Bft) W-SW 0,90 h 0,8 UV-I 253 W/m 2,6 C 4,6 C 0,1 km/h (0 Bft)
19.04.2016 09:00 22,5 C 7,4 C 47 % 72 % 1024,2 hPa 0,0 l/m 3,9 km/h (1 Bft) W-NW 0,98 h 1,2 UV-I 254 W/m 2,7 C 7,2 C 7,1 km/h (2 Bft)
19.04.2016 10:00 23,0 C 8,0 C 48 % 66 % 1024,5 hPa 0,0 l/m 6,4 km/h (2 Bft) W-NW 0,97 h 1,3 UV-I 201 W/m 2,0 C 7,2 C 10,8 km/h (2 Bft)
19.04.2016 11:00 22,8 C 9,1 C 48 % 62 % 1024,3 hPa 0,0 l/m 6,8 km/h (2 Bft) W-SW 1,00 h 2,8 UV-I 470 W/m 2,2 C 8,3 C 13,3 km/h (3 Bft)
19.04.2016 12:00 22,8 C 9,4 C 48 % 58 % 1024,0 hPa 0,0 l/m 7,2 km/h (2 Bft) W-SW 0,85 h 1,9 UV-I 230 W/m 1,6 C 8,4 C 13,9 km/h (3 Bft)
19.04.2016 13:00 22,8 C 10,2 C 48 % 56 % 1023,9 hPa 0,0 l/m 8,1 km/h (2 Bft) W-SW 1,00 h 2,6 UV-I 393 W/m 1,8 C 8,7 C 16,6 km/h (3 Bft)
19.04.2016 14:00 22,9 C 9,9 C 46 % 57 % 1024,0 hPa 0,0 l/m 5,4 km/h (1 Bft) W-SW 0,65 h 1,4 UV-I 180 W/m 1,7 C 9,6 C 11,5 km/h (2 Bft)
19.04.2016 15:00 23,2 C 10,3 C 44 % 57 % 1023,8 hPa 0,0 l/m 4,9 km/h (1 Bft) W-NW 0,67 h 1,3 UV-I 188 W/m 2,1 C 9,4 C 9,8 km/h (2 Bft)
19.04.2016 16:00 22,7 C 10,2 C 43 % 57 % 1023,9 hPa 0,0 l/m 8,0 km/h (2 Bft) NW 0,00 h 0,7 UV-I 108 W/m 2,0 C 8,5 C 13,4 km/h (3 Bft)
19.04.2016 17:00 22,7 C 9,9 C 44 % 58 % 1024,1 hPa 0,0 l/m 8,1 km/h (2 Bft) W-NW 0,00 h 0,6 UV-I 90 W/m 2,0 C 8,0 C 13,9 km/h (3 Bft)
19.04.2016 18:00 23,1 C 9,4 C 45 % 62 % 1024,0 hPa 0,0 l/m 3,5 km/h (1 Bft) W-NW 0,00 h 0,0 UV-I 46 W/m 2,4 C 8,9 C 7,4 km/h (2 Bft)
19.04.2016 19:00 23,3 C 8,9 C 44 % 64 % 1024,2 hPa 0,0 l/m 0,5 km/h (0 Bft) W-NW 0,00 h 0,0 UV-I 15 W/m 2,4 C 8,9 C 2,6 km/h (1 Bft)
19.04.2016 20:00 23,2 C 8,5 C 45 % 66 % 1024,8 hPa 0,0 l/m 1,2 km/h (1 Bft) W 0,00 h 0,0 UV-I 0 W/m 2,5 C 8,5 C 3,9 km/h (1 Bft)
19.04.2016 21:00 23,7 C 8,0 C 46 % 69 % 1025,2 hPa 0,0 l/m 0,5 km/h (0 Bft) W 0,00 h 0,0 UV-I 0 W/m 2,6 C 8,0 C 1,6 km/h (1 Bft)
19.04.2016 22:00 23,4 C 7,0 C 45 % 73 % 1025,6 hPa 0,0 l/m 0,0 km/h (0 Bft) N 0,00 h 0,0 UV-I 0 W/m 2,4 C 7,0 C 0,0 km/h (0 Bft)
19.04.2016 23:00 23,1 C 5,7 C 46 % 78 % 1026,1 hPa 0,0 l/m 0,0 km/h (0 Bft) N 0,00 h 0,0 UV-I 0 W/m 2,2 C 5,7 C 0,0 km/h (0 Bft)
20.04.2016 00:00 22,9 C 4,1 C 47 % 83 % 1026,3 hPa 0,0 l/m 0,0 km/h (0 Bft) N 0,00 h 0,0 UV-I 0 W/m 1,4 C 4,1 C 0,0 km/h (0 Bft)
20.04.2016 01:00 22,8 C 3,3 C 47 % 87 % 1026,8 hPa 0,0 l/m 0,0 km/h (0 Bft) N 0,00 h 0,0 UV-I 0 W/m 1,3 C 3,3 C 0,0 km/h (0 Bft)
20.04.2016 02:00 22,7 C 2,9 C 47 % 88 % 1027,2 hPa 0,0 l/m 0,0 km/h (0 Bft) N 0,00 h 0,0 UV-I 0 W/m 1,1 C 2,9 C 0,0 km/h (0 Bft)
20.04.2016 03:00 22,6 C 2,0 C 48 % 89 % 1027,4 hPa 0,0 l/m 0,0 km/h (0 Bft) N 0,00 h 0,0 UV-I 0 W/m 0,4 C 2,0 C 0,0 km/h (0 Bft)
20.04.2016 04:00 22,7 C 1,2 C 48 % 90 % 1027,6 hPa 0,0 l/m 0,0 km/h (0 Bft) N 0,00 h 0,0 UV-I 0 W/m -0,3 C 1,2 C 0,0 km/h (0 Bft)
20.04.2016 05:00 22,6 C 0,4 C 47 % 90 % 1027,9 hPa 0,0 l/m 0,0 km/h (0 Bft) N 0,00 h 0,0 UV-I 0 W/m -1,0 C 0,4 C 0,0 km/h (0 Bft)
20.04.2016 06:00 22,8 C -0,2 C 48 % 91 % 1028,4 hPa 0,0 l/m 0,0 km/h (0 Bft) N 0,00 h 0,0 UV-I 18 W/m -1,5 C -0,2 C 0,0 km/h (0 Bft)
20.04.2016 07:00 23,0 C 0,6 C 48 % 94 % 1028,9 hPa 0,0 l/m 0,0 km/h (0 Bft) N 0,50 h 0,5 UV-I 143 W/m -0,4 C 0,6 C 0,0 km/h (0 Bft)
20.04.2016 08:00 23,2 C 4,2 C 48 % 86 % 1029,2 hPa 0,0 l/m 2,3 km/h (1 Bft) NW 1,00 h 1,0 UV-I 356 W/m 2,1 C 4,1 C 4,8 km/h (1 Bft)
20.04.2016 09:00 23,5 C 6,6 C 48 % 72 % 1029,3 hPa 0,0 l/m 3,3 km/h (1 Bft) N 0,97 h 1,8 UV-I 506 W/m 1,8 C 6,4 C 7,7 km/h (2 Bft)
20.04.2016 10:00 23,5 C 7,6 C 48 % 64 % 1029,7 hPa 0,0 l/m 4,1 km/h (1 Bft) W-NW 1,00 h 2,9 UV-I 614 W/m 1,3 C 7,1 C 7,8 km/h (2 Bft)
20.04.2016 11:00 23,4 C 9,5 C 48 % 57 % 1029,7 hPa 0,0 l/m 4,3 km/h (1 Bft) W-NW 1,00 h 3,9 UV-I 750 W/m 1,3 C 8,7 C 8,5 km/h (2 Bft)
20.04.2016 12:00 23,4 C 10,8 C 49 % 52 % 1029,5 hPa 0,0 l/m 3,7 km/h (1 Bft) W-NW 1,00 h 4,6 UV-I 801 W/m 1,1 C 10,4 C 8,1 km/h (2 Bft)
20.04.2016 13:00 23,1 C 12,2 C 43 % 45 % 1029,2 hPa 0,0 l/m 4,7 km/h (1 Bft) W-NW 1,00 h 4,7 UV-I 805 W/m 0,5 C 11,7 C 9,9 km/h (2 Bft)
20.04.2016 14:00 22,9 C 13,5 C 40 % 41 % 1028,9 hPa 0,0 l/m 4,8 km/h (1 Bft) N-NW 1,00 h 4,3 UV-I 765 W/m 0,5 C 12,8 C 9,3 km/h (2 Bft)
20.04.2016 15:00 23,5 C 14,0 C 42 % 39 % 1028,4 hPa 0,0 l/m 4,7 km/h (1 Bft) N 1,00 h 3,4 UV-I 675 W/m 0,3 C 13,4 C 9,6 km/h (2 Bft)
20.04.2016 16:00 23,1 C 14,2 C 37 % 38 % 1028,2 hPa 0,0 l/m 6,0 km/h (2 Bft) N 1,00 h 2,3 UV-I 544 W/m -0,0 C 13,3 C 10,7 km/h (2 Bft)
20.04.2016 17:00 22,7 C 13,4 C 35 % 37 % 1028,0 hPa 0,0 l/m 5,8 km/h (2 Bft) N-NW 1,00 h 1,3 UV-I 361 W/m -1,1 C 12,4 C 10,1 km/h (2 Bft)
20.04.2016 18:00 22,9 C 12,3 C 37 % 38 % 1027,8 hPa 0,0 l/m 3,5 km/h (1 Bft) N 0,33 h 0,8 UV-I 86 W/m -1,5 C 11,9 C 6,9 km/h (2 Bft)
20.04.2016 19:00 23,1 C 10,8 C 38 % 46 % 1027,7 hPa 0,0 l/m 0,6 km/h (0 Bft) N 0,00 h 0,0 UV-I 16 W/m -0,4 C 10,9 C 2,2 km/h (1 Bft)
20.04.2016 20:00 23,3 C 9,0 C 38 % 55 % 1027,9 hPa 0,0 l/m 0,0 km/h (0 Bft) N 0,00 h 0,0 UV-I 6 W/m 0,4 C 9,0 C 0,0 km/h (0 Bft)
20.04.2016 21:00 23,4 C 7,7 C 39 % 61 % 1028,3 hPa 0,0 l/m 0,0 km/h (0 Bft) N 0,00 h 0,0 UV-I 0 W/m 0,6 C 7,7 C 0,0 km/h (0 Bft)
20.04.2016 22:00 23,4 C 5,8 C 40 % 70 % 1028,5 hPa 0,0 l/m 0,0 km/h (0 Bft) N 0,00 h 0,0 UV-I 0 W/m 0,8 C 5,8 C 0,0 km/h (0 Bft)
20.04.2016 23:00 23,1 C 4,1 C 41 % 77 % 1028,4 hPa 0,0 l/m 0,0 km/h (0 Bft) N 0,00 h 0,0 UV-I 0 W/m 0,4 C 4,1 C 0,0 km/h (0 Bft)
21.04.2016 00:00 22,9 C 3,0 C 42 % 80 % 1028,3 hPa 0,0 l/m 0,0 km/h (0 Bft) N 0,00 h 0,0 UV-I 0 W/m -0,1 C 3,0 C 0,0 km/h (0 Bft)
21.04.2016 01:00 22,7 C 2,1 C 43 % 83 % 1028,3 hPa 0,0 l/m 0,0 km/h (0 Bft) N 0,00 h 0,0 UV-I 0 W/m -0,5 C 2,1 C 0,0 km/h (0 Bft)
21.04.2016 02:00 22,7 C 1,6 C 43 % 84 % 1028,2 hPa 0,0 l/m 0,0 km/h (0 Bft) N 0,00 h 0,0 UV-I 0 W/m -0,8 C 1,6 C 0,0 km/h (0 Bft)
21.04.2016 03:00 22,6 C 0,8 C 43 % 86 % 1027,4 hPa 0,0 l/m 0,0 km/h (0 Bft) N 0,00 h 0,0 UV-I 0 W/m -1,3 C 0,8 C 0,0 km/h (0 Bft)
21.04.2016 04:00 22,6 C 0,3 C 43 % 89 % 1027,2 hPa 0,0 l/m 0,0 km/h (0 Bft) N 0,00 h 0,0 UV-I 0 W/m -1,3 C 0,3 C 0,0 km/h (0 Bft)
21.04.2016 05:00 22,4 C -0,0 C 43 % 90 % 1026,8 hPa 0,0 l/m 0,0 km/h (0 Bft) N 0,00 h 0,0 UV-I 0 W/m -1,5 C -0,0 C 0,0 km/h (0 Bft)
21.04.2016 06:00 22,4 C -0,5 C 43 % 90 % 1026,5 hPa 0,0 l/m 0,0 km/h (0 Bft) N 0,00 h 0,0 UV-I 13 W/m -1,9 C -0,5 C 0,0 km/h (0 Bft)
21.04.2016 07:00 22,4 C 0,8 C 44 % 93 % 1026,5 hPa 0,0 l/m 0,0 km/h (0 Bft) N 0,52 h 0,6 UV-I 155 W/m -0,1 C 0,8 C 0,0 km/h (0 Bft)
21.04.2016 08:00 22,4 C 6,3 C 44 % 79 % 1026,3 hPa 0,0 l/m 0,0 km/h (0 Bft) SO 1,00 h 1,1 UV-I 368 W/m 2,9 C 6,3 C 0,1 km/h (0 Bft)
21.04.2016 09:00 22,5 C 9,8 C 45 % 59 % 1026,2 hPa 0,0 l/m 0,9 km/h (0 Bft) O-SO 1,00 h 2,0 UV-I 530 W/m 2,1 C 9,8 C 3,5 km/h (1 Bft)
21.04.2016 10:00 22,9 C 11,5 C 45 % 52 % 1026,1 hPa 0,0 l/m 0,9 km/h (0 Bft) O-SO 1,00 h 3,0 UV-I 661 W/m 2,0 C 11,5 C 3,1 km/h (1 Bft)
21.04.2016 11:00 22,9 C 13,2 C 46 % 45 % 1025,8 hPa 0,0 l/m 1,1 km/h (0 Bft) SO 1,00 h 4,1 UV-I 760 W/m 1,5 C 13,2 C 2,9 km/h (1 Bft)
21.04.2016 12:00 23,0 C 14,6 C 46 % 36 % 1025,3 hPa 0,0 l/m 1,4 km/h (1 Bft) SO 1,00 h 4,8 UV-I 811 W/m -0,4 C 14,6 C 4,0 km/h (1 Bft)
21.04.2016 13:00 23,0 C 16,0 C 44 % 32 % 1024,3 hPa 0,0 l/m 0,7 km/h (0 Bft) O-SO 1,00 h 4,9 UV-I 813 W/m -0,7 C 16,0 C 2,8 km/h (1 Bft)
21.04.2016 14:00 23,1 C 17,1 C 43 % 33 % 1023,4 hPa 0,0 l/m 1,2 km/h (1 Bft) SO 1,00 h 4,4 UV-I 768 W/m 0,6 C 17,1 C 4,3 km/h (1 Bft)
21.04.2016 15:00 23,1 C 17,8 C 43 % 32 % 1022,4 hPa 0,0 l/m 1,3 km/h (1 Bft) S-SO 1,00 h 3,5 UV-I 678 W/m 0,8 C 17,8 C 3,8 km/h (1 Bft)
21.04.2016 16:00 23,1 C 18,3 C 42 % 31 % 1021,6 hPa 0,0 l/m 0,8 km/h (0 Bft) O-SO 1,00 h 2,3 UV-I 546 W/m 0,9 C 18,3 C 3,0 km/h (1 Bft)
21.04.2016 17:00 23,0 C 18,2 C 40 % 31 % 1020,7 hPa 0,0 l/m 0,8 km/h (0 Bft) O-NO 1,00 h 1,3 UV-I 359 W/m 0,9 C 18,2 C 2,3 km/h (1 Bft)
21.04.2016 18:00 23,0 C 17,4 C 41 % 31 % 1019,9 hPa 0,0 l/m 0,1 km/h (0 Bft) S 0,30 h 0,8 UV-I 85 W/m 0,2 C 17,4 C 0,6 km/h (0 Bft)
21.04.2016 19:00 23,1 C 16,4 C 39 % 35 % 1019,2 hPa 0,0 l/m 0,0 km/h (0 Bft) S 0,00 h 0,0 UV-I 18 W/m 0,9 C 16,4 C 0,1 km/h (0 Bft)
21.04.2016 20:00 23,3 C 14,5 C 41 % 45 % 1019,0 hPa 0,0 l/m 0,2 km/h (0 Bft) NO 0,00 h 0,0 UV-I 6 W/m 2,8 C 14,5 C 0,7 km/h (0 Bft)
21.04.2016 21:00 23,4 C 11,9 C 42 % 58 % 1018,9 hPa 0,0 l/m 0,0 km/h (0 Bft) O-NO 0,00 h 0,0 UV-I 0 W/m 3,9 C 11,9 C 0,3 km/h (0 Bft)
21.04.2016 22:00 23,4 C 9,2 C 42 % 67 % 1018,8 hPa 0,0 l/m 0,0 km/h (0 Bft) N 0,00 h 0,0 UV-I 0 W/m 3,5 C 9,2 C 0,0 km/h (0 Bft)
21.04.2016 23:00 23,1 C 7,4 C 43 % 74 % 1018,7 hPa 0,0 l/m 0,0 km/h (0 Bft) N 0,00 h 0,0 UV-I 0 W/m 3,0 C 7,4 C 0,0 km/h (0 Bft)
22.04.2016 00:00 22,9 C 5,7 C 44 % 79 % 1018,5 hPa 0,0 l/m 0,0 km/h (0 Bft) N 0,00 h 0,0 UV-I 0 W/m 2,3 C 5,7 C 0,0 km/h (0 Bft)
22.04.2016 01:00 22,8 C 4,5 C 44 % 81 % 1018,3 hPa 0,0 l/m 0,0 km/h (0 Bft) N 0,00 h 0,0 UV-I 0 W/m 1,6 C 4,5 C 0,0 km/h (0 Bft)
22.04.2016 02:00 22,7 C 3,5 C 45 % 85 % 1018,1 hPa 0,0 l/m 0,0 km/h (0 Bft) N 0,00 h 0,0 UV-I 0 W/m 1,1 C 3,5 C 0,0 km/h (0 Bft)
22.04.2016 03:00 22,7 C 2,8 C 45 % 87 % 1017,8 hPa 0,0 l/m 0,0 km/h (0 Bft) N 0,00 h 0,0 UV-I 0 W/m 0,7 C 2,8 C 0,0 km/h (0 Bft)
22.04.2016 04:00 22,6 C 2,2 C 45 % 88 % 1017,7 hPa 0,0 l/m 0,0 km/h (0 Bft) N 0,00 h 0,0 UV-I 0 W/m 0,4 C 2,2 C 0,0 km/h (0 Bft)
22.04.2016 05:00 22,5 C 2,2 C 45 % 90 % 1017,6 hPa 0,0 l/m 0,0 km/h (0 Bft) N 0,00 h 0,0 UV-I 5 W/m 0,6 C 2,2 C 0,0 km/h (0 Bft)
22.04.2016 06:00 22,5 C 2,4 C 45 % 90 % 1017,5 hPa 0,0 l/m 0,0 km/h (0 Bft) N 0,00 h 0,0 UV-I 21 W/m 1,0 C 2,4 C 0,0 km/h (0 Bft)
22.04.2016 07:00 22,5 C 4,9 C 45 % 87 % 1017,6 hPa 0,0 l/m 1,8 km/h (1 Bft) N 0,50 h 0,5 UV-I 143 W/m 2,8 C 4,9 C 3,7 km/h (1 Bft)
22.04.2016 08:00 22,6 C 8,1 C 45 % 76 % 1017,8 hPa 0,0 l/m 4,0 km/h (1 Bft) N 0,85 h 1,0 UV-I 264 W/m 4,2 C 8,0 C 7,9 km/h (2 Bft)
22.04.2016 09:00 22,7 C 9,9 C 46 % 70 % 1017,8 hPa 0,0 l/m 2,9 km/h (1 Bft) N 1,00 h 1,6 UV-I 385 W/m 4,8 C 9,9 C 6,6 km/h (2 Bft)
22.04.2016 10:00 22,9 C 11,9 C 46 % 63 % 1017,6 hPa 0,0 l/m 3,8 km/h (1 Bft) N-NO 1,00 h 2,7 UV-I 525 W/m 5,0 C 11,7 C 7,4 km/h (2 Bft)
22.04.2016 11:00 22,9 C 13,2 C 45 % 57 % 1017,2 hPa 0,0 l/m 2,3 km/h (1 Bft) N-NO 1,00 h 3,2 UV-I 531 W/m 4,9 C 13,2 C 4,8 km/h (1 Bft)
22.04.2016 12:00 22,8 C 13,8 C 44 % 56 % 1016,8 hPa 0,0 l/m 2,1 km/h (1 Bft) N-NO 1,00 h 3,1 UV-I 445 W/m 5,2 C 13,8 C 5,3 km/h (1 Bft)
22.04.2016 13:00 22,9 C 15,3 C 43 % 52 % 1016,3 hPa 0,0 l/m 2,1 km/h (1 Bft) N 1,00 h 4,0 UV-I 601 W/m 5,4 C 15,3 C 3,9 km/h (1 Bft)
22.04.2016 14:00 22,9 C 15,8 C 43 % 50 % 1015,5 hPa 0,0 l/m 3,2 km/h (1 Bft) NW 1,00 h 3,6 UV-I 580 W/m 5,4 C 15,7 C 6,6 km/h (2 Bft)
22.04.2016 15:00 22,4 C 16,0 C 39 % 50 % 1014,7 hPa 0,0 l/m 3,3 km/h (1 Bft) N-NW 1,00 h 2,6 UV-I 452 W/m 5,4 C 15,8 C 6,5 km/h (2 Bft)
22.04.2016 16:00 22,0 C 15,1 C 38 % 52 % 1014,0 hPa 0,0 l/m 2,4 km/h (1 Bft) N-NW 1,00 h 1,4 UV-I 241 W/m 5,3 C 15,1 C 5,5 km/h (1 Bft)
22.04.2016 17:00 22,8 C 14,5 C 41 % 53 % 1013,4 hPa 0,0 l/m 2,1 km/h (1 Bft) N 0,43 h 0,7 UV-I 135 W/m 5,1 C 14,5 C 4,5 km/h (1 Bft)
22.04.2016 18:00 23,0 C 13,7 C 41 % 51 % 1013,2 hPa 0,0 l/m 2,2 km/h (1 Bft) N 0,00 h 0,0 UV-I 66 W/m 3,8 C 13,7 C 4,7 km/h (1 Bft)
22.04.2016 19:00 23,2 C 12,3 C 42 % 55 % 1013,0 hPa 0,0 l/m 2,2 km/h (1 Bft) N 0,00 h 0,0 UV-I 21 W/m 3,6 C 12,3 C 5,3 km/h (1 Bft)
22.04.2016 20:00 23,1 C 10,9 C 41 % 62 % 1013,1 hPa 0,0 l/m 0,6 km/h (0 Bft) N 0,00 h 0,0 UV-I 0 W/m 3,8 C 10,9 C 2,0 km/h (1 Bft)
22.04.2016 21:00 23,2 C 9,7 C 42 % 65 % 1013,3 hPa 0,0 l/m 0,7 km/h (0 Bft) N-NW 0,00 h 0,0 UV-I 0 W/m 3,5 C 9,7 C 1,9 km/h (1 Bft)
22.04.2016 22:00 23,4 C 8,6 C 43 % 68 % 1013,1 hPa 0,0 l/m 0,0 km/h (0 Bft) N 0,00 h 0,0 UV-I 0 W/m 3,0 C 8,6 C 0,1 km/h (0 Bft)
22.04.2016 23:00 23,3 C 8,1 C 44 % 70 % 1013,0 hPa 0,0 l/m 0,0 km/h (0 Bft) N 0,00 h 0,0 UV-I 0 W/m 2,8 C 8,1 C 0,0 km/h (0 Bft)
23.04.2016 00:00 22,9 C 7,5 C 44 % 71 % 1012,7 hPa 0,0 l/m 0,0 km/h (0 Bft) N 0,00 h 0,0 UV-I 0 W/m 2,6 C 7,5 C 0,2 km/h (0 Bft)
23.04.2016 01:00 22,7 C 6,8 C 44 % 71 % 1012,2 hPa 0,0 l/m 0,0 km/h (0 Bft) N 0,00 h 0,0 UV-I 0 W/m 1,9 C 6,8 C 0,0 km/h (0 Bft)
23.04.2016 02:00 22,6 C 6,1 C 44 % 71 % 1011,3 hPa 0,0 l/m 0,0 km/h (0 Bft) N 0,00 h 0,0 UV-I 0 W/m 1,2 C 6,1 C 0,3 km/h (0 Bft)
23.04.2016 03:00 22,6 C 5,3 C 45 % 77 % 1010,6 hPa 0,0 l/m 0,0 km/h (0 Bft) N 0,00 h 0,0 UV-I 0 W/m 1,7 C 5,3 C 0,0 km/h (0 Bft)
23.04.2016 04:00 22,6 C 5,2 C 45 % 75 % 1010,0 hPa 0,0 l/m 0,4 km/h (0 Bft) N-NW 0,00 h 0,0 UV-I 0 W/m 1,2 C 5,2 C 1,8 km/h (1 Bft)
23.04.2016 05:00 22,5 C 5,5 C 45 % 77 % 1009,6 hPa 0,0 l/m 0,0 km/h (0 Bft) N 0,00 h 0,0 UV-I 0 W/m 1,7 C 5,5 C 0,1 km/h (0 Bft)
23.04.2016 06:00 22,5 C 5,4 C 46 % 79 % 1009,3 hPa 0,0 l/m 0,0 km/h (0 Bft) N 0,00 h 0,0 UV-I 16 W/m 2,0 C 5,4 C 0,2 km/h (0 Bft)
23.04.2016 07:00 22,5 C 5,7 C 46 % 79 % 1009,1 hPa 0,0 l/m 1,0 km/h (0 Bft) N 0,00 h 0,5 UV-I 50 W/m 2,4 C 5,7 C 3,4 km/h (1 Bft)
23.04.2016 08:00 22,7 C 6,8 C 46 % 74 % 1008,7 hPa 0,0 l/m 5,7 km/h (1 Bft) N 0,27 h 0,6 UV-I 131 W/m 2,4 C 5,9 C 10,3 km/h (2 Bft)
23.04.2016 09:00 23,0 C 8,2 C 47 % 69 % 1008,1 hPa 0,0 l/m 1,4 km/h (1 Bft) N 0,93 h 1,2 UV-I 206 W/m 2,8 C 8,1 C 3,7 km/h (1 Bft)
23.04.2016 10:00 23,1 C 8,7 C 45 % 67 % 1007,9 hPa 0,0 l/m 6,0 km/h (2 Bft) N 0,33 h 0,9 UV-I 133 W/m 2,9 C 7,8 C 10,0 km/h (2 Bft)
23.04.2016 11:00 23,0 C 8,1 C 45 % 75 % 1008,1 hPa 0,2 l/m 2,7 km/h (1 Bft) N 0,78 h 1,3 UV-I 186 W/m 4,0 C 7,7 C 5,7 km/h (1 Bft)
23.04.2016 12:00 23,1 C 7,8 C 44 % 80 % 1007,9 hPa 0,2 l/m 0,9 km/h (0 Bft) N 0,90 h 1,4 UV-I 188 W/m 4,5 C 7,7 C 2,5 km/h (1 Bft)
23.04.2016 13:00 23,4 C 7,2 C 45 % 86 % 1007,5 hPa 0,4 l/m 1,4 km/h (1 Bft) NW 0,38 h 1,1 UV-I 142 W/m 5,0 C 7,2 C 4,3 km/h (1 Bft)
23.04.2016 14:00 23,9 C 7,1 C 45 % 88 % 1007,0 hPa 0,4 l/m 3,4 km/h (1 Bft) N 0,95 h 1,4 UV-I 192 W/m 5,3 C 6,8 C 7,1 km/h (2 Bft)
23.04.2016 15:00 23,7 C 6,7 C 45 % 90 % 1006,5 hPa 0,6 l/m 6,2 km/h (2 Bft) N 0,02 h 0,9 UV-I 117 W/m 5,2 C 5,3 C 10,4 km/h (2 Bft)
23.04.2016 16:00 23,6 C 6,0 C 45 % 92 % 1006,3 hPa 0,8 l/m 7,0 km/h (2 Bft) N 0,00 h 0,7 UV-I 59 W/m 4,8 C 4,4 C 11,3 km/h (2 Bft)
23.04.2016 17:00 23,6 C 4,4 C 45 % 92 % 1006,7 hPa 0,8 l/m 11,7 km/h (2 Bft) N 0,00 h 0,0 UV-I 52 W/m 3,3 C 0,5 C 18,2 km/h (3 Bft)
23.04.2016 18:00 23,7 C 3,4 C 45 % 93 % 1007,1 hPa 0,6 l/m 10,0 km/h (2 Bft) N 0,00 h 0,0 UV-I 44 W/m 2,3 C 0,3 C 16,4 km/h (3 Bft)
23.04.2016 19:00 23,6 C 2,7 C 44 % 93 % 1007,6 hPa 0,2 l/m 12,3 km/h (3 Bft) N 0,00 h 0,0 UV-I 28 W/m 1,7 C -1,8 C 18,8 km/h (3 Bft)
23.04.2016 20:00 23,5 C 2,5 C 45 % 93 % 1008,2 hPa 0,0 l/m 5,7 km/h (1 Bft) N 0,00 h 0,0 UV-I 5 W/m 1,5 C 1,5 C 10,9 km/h (2 Bft)
23.04.2016 21:00 23,4 C 2,5 C 45 % 93 % 1008,9 hPa 0,0 l/m 3,2 km/h (1 Bft) NW 0,00 h 0,0 UV-I 0 W/m 1,5 C 2,4 C 7,2 km/h (2 Bft)
23.04.2016 22:00 23,2 C 2,5 C 44 % 93 % 1009,2 hPa 0,0 l/m 2,3 km/h (1 Bft) NW 0,00 h 0,0 UV-I 0 W/m 1,4 C 2,4 C 5,8 km/h (2 Bft)
23.04.2016 23:00 22,9 C 2,2 C 45 % 93 % 1009,7 hPa 0,0 l/m 3,4 km/h (1 Bft) NW 0,00 h 0,0 UV-I 0 W/m 1,2 C 2,1 C 7,1 km/h (2 Bft)
24.04.2016 00:00 22,8 C 1,5 C 45 % 93 % 1010,4 hPa 0,0 l/m 3,5 km/h (1 Bft) W-NW 0,00 h 0,0 UV-I 0 W/m 0,4 C 1,5 C 6,1 km/h (2 Bft)
24.04.2016 01:00 22,7 C 0,7 C 46 % 92 % 1010,9 hPa 0,0 l/m 3,5 km/h (1 Bft) W-NW 0,00 h 0,0 UV-I 0 W/m -0,4 C 0,7 C 6,1 km/h (2 Bft)
24.04.2016 02:00 22,7 C 0,1 C 46 % 92 % 1011,2 hPa 0,0 l/m 0,4 km/h (0 Bft) W-SW 0,00 h 0,0 UV-I 0 W/m -1,1 C 0,1 C 0,9 km/h (0 Bft)
24.04.2016 03:00 22,6 C -0,4 C 47 % 92 % 1011,5 hPa 0,0 l/m 0,0 km/h (0 Bft) W-SW 0,00 h 0,0 UV-I 0 W/m -1,5 C -0,4 C 0,2 km/h (0 Bft)
24.04.2016 04:00 22,6 C -0,4 C 47 % 93 % 1011,7 hPa 0,0 l/m 0,7 km/h (0 Bft) W-SW 0,00 h 0,0 UV-I 0 W/m -1,4 C -0,4 C 1,7 km/h (1 Bft)
24.04.2016 05:00 22,6 C -0,8 C 47 % 93 % 1011,8 hPa 0,0 l/m 0,7 km/h (0 Bft) W-SW 0,00 h 0,0 UV-I 0 W/m -1,7 C -0,8 C 1,6 km/h (1 Bft)
24.04.2016 06:00 22,6 C -1,2 C 47 % 93 % 1011,8 hPa 0,0 l/m 1,5 km/h (1 Bft) W-NW 0,00 h 0,0 UV-I 15 W/m -2,2 C -1,2 C 3,1 km/h (1 Bft)
24.04.2016 07:00 22,8 C -0,5 C 47 % 92 % 1012,1 hPa 0,0 l/m 2,4 km/h (1 Bft) W-NW 0,35 h 0,6 UV-I 121 W/m -1,6 C -0,9 C 4,5 km/h (1 Bft)
24.04.2016 08:00 23,0 C 1,6 C 46 % 84 % 1012,2 hPa 0,0 l/m 6,2 km/h (2 Bft) W-NW 1,00 h 1,0 UV-I 367 W/m -0,7 C 0,1 C 11,3 km/h (2 Bft)
24.04.2016 09:00 22,8 C 3,3 C 46 % 75 % 1012,1 hPa 0,0 l/m 10,0 km/h (2 Bft) NW 0,92 h 1,6 UV-I 438 W/m -0,8 C 0,1 C 15,5 km/h (3 Bft)
24.04.2016 10:00 22,9 C 3,8 C 46 % 69 % 1012,2 hPa 0,0 l/m 7,0 km/h (2 Bft) W-NW 0,67 h 2,0 UV-I 432 W/m -1,4 C 2,5 C 12,1 km/h (2 Bft)
24.04.2016 11:00 22,9 C 4,4 C 45 % 62 % 1012,2 hPa 0,0 l/m 9,8 km/h (2 Bft) W 1,00 h 2,6 UV-I 425 W/m -2,3 C 1,4 C 15,4 km/h (3 Bft)
24.04.2016 12:00 22,7 C 4,6 C 43 % 59 % 1011,8 hPa 0,0 l/m 7,0 km/h (2 Bft) W 1,00 h 2,6 UV-I 357 W/m -2,7 C 3,0 C 12,6 km/h (3 Bft)
24.04.2016 13:00 22,8 C 5,8 C 42 % 55 % 1011,0 hPa 0,0 l/m 8,9 km/h (2 Bft) W-SW 1,00 h 3,7 UV-I 602 W/m -2,6 C 3,5 C 14,9 km/h (3 Bft)
24.04.2016 14:00 22,7 C 5,9 C 41 % 61 % 1010,7 hPa 0,0 l/m 10,9 km/h (2 Bft) W-NW 0,95 h 2,7 UV-I 470 W/m -1,1 C 2,6 C 16,9 km/h (3 Bft)
24.04.2016 15:00 22,9 C 6,1 C 42 % 59 % 1010,4 hPa 0,0 l/m 11,7 km/h (2 Bft) W-SW 1,00 h 2,8 UV-I 544 W/m -1,2 C 2,4 C 17,6 km/h (3 Bft)
24.04.2016 16:00 23,1 C 6,1 C 41 % 60 % 1010,1 hPa 0,0 l/m 9,1 km/h (2 Bft) W-SW 0,87 h 1,8 UV-I 411 W/m -1,3 C 3,6 C 15,9 km/h (3 Bft)
24.04.2016 17:00 22,8 C 3,7 C 40 % 81 % 1010,5 hPa 0,0 l/m 10,6 km/h (2 Bft) NW 0,18 h 0,6 UV-I 135 W/m 0,7 C 0,3 C 16,2 km/h (3 Bft)
24.04.2016 18:00 22,7 C 3,3 C 40 % 77 % 1010,4 hPa 0,0 l/m 2,1 km/h (1 Bft) W-SW 0,00 h 0,5 UV-I 84 W/m -0,3 C 3,2 C 5,3 km/h (1 Bft)
24.04.2016 19:00 23,0 C 3,1 C 41 % 76 % 1010,4 hPa 0,0 l/m 2,9 km/h (1 Bft) W-SW 0,00 h 0,0 UV-I 25 W/m -0,7 C 2,9 C 6,6 km/h (2 Bft)
24.04.2016 20:00 23,2 C 2,1 C 42 % 82 % 1010,7 hPa 0,0 l/m 3,3 km/h (1 Bft) W-SW 0,00 h 0,0 UV-I 6 W/m -0,7 C 2,0 C 6,8 km/h (2 Bft)
24.04.2016 21:00 23,3 C 1,9 C 43 % 86 % 1011,2 hPa 0,0 l/m 2,8 km/h (1 Bft) W-NW 0,00 h 0,0 UV-I 0 W/m -0,3 C 1,9 C 5,2 km/h (1 Bft)
24.04.2016 22:00 23,0 C 1,6 C 42 % 86 % 1011,2 hPa 0,0 l/m 0,5 km/h (0 Bft) S 0,00 h 0,0 UV-I 0 W/m -0,5 C 1,6 C 1,3 km/h (1 Bft)
24.04.2016 23:00 22,8 C 1,1 C 43 % 87 % 1011,0 hPa 0,0 l/m 0,3 km/h (0 Bft) S 0,00 h 0,0 UV-I 0 W/m -0,8 C 1,1 C 0,7 km/h (0 Bft)
Min-Datum _ 22.04.16 24.04.16 20.04.16 21.04.16 23.04.16 - 18.04.16 - - - - 24.04.16 23.04.16 18.04.16
_ Min-Zeit 16:26 06:49 17:04 13:02 16:13 - 00:00 - - - - 12:04 19:00 00:00
Minimum _ 21,9 C -1,4 C 31 % 28 % 1006,2 hPa - 0,0 km/h (0 Bft) - - - - -3,9 C -6,3 C 0,0 km/h (0 Bft)
Max-Datum _ 23.04.16 21.04.16 18.04.16 18.04.16 20.04.16 23.04.16 24.04.16 - 18.04.16 19.04.16 19.04.16 22.04.16 21.04.16 19.04.16
_ Max-Zeit 14:46 16:44 01:45 04:58 10:28 16:05 15:32 - 09:13 13:19 13:21 14:45 16:44 13:15
Maximum _ 24,0 C 19,0 C 51 % 96 % 1029,8 hPa 0,8 l/m 22,5 km/h
W-SW (4 Bft)
- 0,03 h 5,5 UV-I 1088 W/m 7,1 C 19,0 C 30,6 km/h
W (5 Bft)
Durchschnitt _ 22,9 C 6,8 C 45 % 72 % 1018,7 hPa #4,4 l/m 2,2 km/h (1 Bft) N #60:40 h 2,0 UV-I 282 W/m 1,6 C 6,5 C 4,2 km/h (1 Bft)